Time;durP1;ratioP1;P1;durP2;ratioP2;P2;SDS_P1;SDS_P2;PMS_P1;PMS_P2;Temp;Humidity;BMP_temperature;BMP_pressure;BME280_temperature;BME280_humidity;BME280_pressure;Samples;Min_cycle;Max_cycle;Signal;HPM_P1;HPM_P2
2021/12/29 00:00:15;;;;;;;;;;;7.80;99.90;;;;;;5071477;28;19962;-67
2021/12/29 00:02:41;;;;;;;;;;;;;;;;;;5072236;28;19909;-67
2021/12/29 00:05:07;;;;;;;;;;;9.60;99.90;;;;;;5071718;28;19900;-66
2021/12/29 00:07:33;;;;;;;;;;;9.00;99.90;;;;;;5071974;28;19909;-67
2021/12/29 00:10:02;;;;;;;;;;;8.10;99.90;;;;;;5071174;28;19909;-65
2021/12/29 00:12:28;;;;;;;;;;;9.00;99.90;;;;;;5071837;28;19916;-65
2021/12/29 00:14:54;;;;;;;;;;;9.30;99.90;;;;;;5071773;28;19999;-65
2021/12/29 00:17:20;;;;;;;;;;;8.10;99.90;;;;;;5071963;28;19985;-66
2021/12/29 00:19:45;;;;;;;;;;;8.70;99.90;;;;;;5070634;28;19915;-66
2021/12/29 00:22:11;;;;;;;;;;;8.80;99.90;;;;;;5071714;28;19912;-64
2021/12/29 00:24:36;;;;;;;;;;;6.90;99.90;;;;;;5071695;28;19909;-67
2021/12/29 00:27:04;;;;;;;;;;;8.30;99.90;;;;;;5071733;28;19904;-65
2021/12/29 00:29:29;;;;;;;;;;;9.60;99.90;;;;;;5070962;28;19950;-65
2021/12/29 00:31:55;;;;;;;;;;;8.90;99.90;;;;;;5074855;28;19908;-66
2021/12/29 00:34:21;;;;;;;;;;;;;;;;;;5075376;28;20329;-66
2021/12/29 00:36:46;;;;;;;;;;;8.00;99.90;;;;;;5073771;28;19908;-66
2021/12/29 00:39:12;;;;;;;;;;;7.60;99.90;;;;;;5074510;28;19932;-66
2021/12/29 00:41:37;;;;;;;;;;;8.20;99.90;;;;;;5075475;28;19908;-66
2021/12/29 00:44:03;;;;;;;;;;;9.00;99.90;;;;;;5075219;28;19951;-66
2021/12/29 00:46:28;;;;;;;;;;;8.80;99.90;;;;;;5075201;28;19909;-66
2021/12/29 00:48:56;;;;;;;;;;;9.50;99.90;;;;;;5075138;28;19921;-65
2021/12/29 00:51:22;;;;;;;;;;;8.70;99.90;;;;;;5074159;28;19962;-65
2021/12/29 00:53:47;;;;;;;;;;;7.30;99.90;;;;;;5075199;28;19947;-66
2021/12/29 00:56:13;;;;;;;;;;;;;;;;;;5075588;28;19940;-66
2021/12/29 00:58:39;;;;;;;;;;;;;;;;;;5075557;28;20247;-66
2021/12/29 01:01:05;;;;;;;;;;;8.60;99.90;;;;;;5074158;28;19905;-66
2021/12/29 01:03:30;;;;;;;;;;;8.20;99.90;;;;;;5076166;28;19909;-65
2021/12/29 01:05:56;;;;;;;;;;;9.10;99.90;;;;;;5075901;28;19913;-65
2021/12/29 01:08:21;;;;;;;;;;;8.70;99.90;;;;;;5077716;28;19904;-65
2021/12/29 01:10:47;;;;;;;;;;;8.80;99.90;;;;;;5075698;28;19908;-66
2021/12/29 01:13:18;;;;;;;;;;;;;;;;;;5076663;28;20546;-64
2021/12/29 01:16:16;;;;;;;;;;;8.30;99.90;;;;;;5076717;28;19933;-64
2021/12/29 01:18:43;;;;;;;;;;;9.70;99.90;;;;;;5077177;28;19912;-64
2021/12/29 01:21:09;;;;;;;;;;;9.00;99.90;;;;;;5075512;28;20366;-64
2021/12/29 01:23:34;;;;;;;;;;;9.10;99.90;;;;;;5076861;28;19915;-64
2021/12/29 01:26:00;;;;;;;;;;;6.70;99.90;;;;;;5075958;28;19913;-64
2021/12/29 01:28:26;;;;;;;;;;;;;;;;;;5075337;28;20377;-64
2021/12/29 01:30:52;;;;;;;;;;;;;;;;;;5074213;28;19904;-65
2021/12/29 01:33:17;;;;;;;;;;;8.90;99.90;;;;;;5075135;28;19913;-66
2021/12/29 01:35:43;;;;;;;;;;;8.40;99.90;;;;;;5074881;28;19904;-66
2021/12/29 01:38:09;;;;;;;;;;;9.50;99.90;;;;;;5074470;28;19915;-65
2021/12/29 01:40:38;;;;;;;;;;;9.40;99.90;;;;;;5073993;28;19945;-66
2021/12/29 01:43:04;;;;;;;;;;;8.80;99.90;;;;;;5073443;28;19908;-64
2021/12/29 01:45:30;;;;;;;;;;;8.80;99.90;;;;;;5074182;28;19904;-67
2021/12/29 01:47:55;;;;;;;;;;;8.00;99.90;;;;;;5074539;28;19950;-64
2021/12/29 01:50:21;;;;;;;;;;;9.80;99.90;;;;;;5073436;28;19912;-65
2021/12/29 01:52:56;;;;;;;;;;;;;;;;;;5074273;28;19935;-66
2021/12/29 01:55:25;;;;;;;;;;;7.50;99.90;;;;;;5074237;28;19904;-65
2021/12/29 01:57:51;;;;;;;;;;;8.90;99.90;;;;;;5074148;28;19915;-64
2021/12/29 02:00:18;;;;;;;;;;;7.80;99.90;;;;;;5073301;28;19908;-66
2021/12/29 02:02:43;;;;;;;;;;;8.20;99.90;;;;;;5056103;28;19909;-64
2021/12/29 02:05:09;;;;;;;;;;;;;;;;;;5073650;28;19908;-64
2021/12/29 02:07:35;;;;;;;;;;;;;;;;;;5073842;28;19911;-65
2021/12/29 02:10:01;;;;;;;;;;;;;;;;;;5073117;28;19928;-65
2021/12/29 02:12:27;;;;;;;;;;;8.60;99.90;;;;;;5073431;28;19912;-65
2021/12/29 02:14:53;;;;;;;;;;;;;;;;;;5073454;28;19912;-65
2021/12/29 02:17:18;;;;;;;;;;;9.00;99.90;;;;;;5073542;28;19909;-65
2021/12/29 02:19:48;;;;;;;;;;;8.50;99.90;;;;;;5072845;28;19915;-65
2021/12/29 02:22:25;;;;;;;;;;;;;;;;;;5073163;28;19905;-65
2021/12/29 02:25:05;;;;;;;;;;;;;;;;;;5073425;28;20006;-65
2021/12/29 02:27:32;;;;;;;;;;;8.90;99.90;;;;;;5073315;28;19913;-65
2021/12/29 02:29:58;;;;;;;;;;;8.40;99.90;;;;;;5072672;28;19904;-64
2021/12/29 02:32:23;;;;;;;;;;;9.50;99.90;;;;;;5073179;28;20385;-65
2021/12/29 02:34:49;;;;;;;;;;;9.50;99.90;;;;;;5073327;28;19942;-64
2021/12/29 02:37:19;;;;;;;;;;;7.30;99.90;;;;;;5072707;28;19946;-65
2021/12/29 02:39:45;;;;;;;;;;;7.70;99.90;;;;;;5072692;28;19908;-65
2021/12/29 02:42:10;;;;;;;;;;;10.40;99.90;;;;;;5073179;28;20362;-64
2021/12/29 02:44:40;;;;;;;;;;;;;;;;;;5073042;28;19944;-65
2021/12/29 02:47:06;;;;;;;;;;;10.10;99.90;;;;;;5072897;28;19946;-65
2021/12/29 02:49:32;;;;;;;;;;;8.30;99.90;;;;;;5072312;28;19998;-65
2021/12/29 02:51:57;;;;;;;;;;;9.20;99.90;;;;;;5072391;28;19914;-65
2021/12/29 02:54:23;;;;;;;;;;;8.90;99.90;;;;;;5072639;28;19951;-65
2021/12/29 02:56:49;;;;;;;;;;;9.00;99.90;;;;;;5072569;28;20049;-65
2021/12/29 02:59:16;;;;;;;;;;;10.90;99.90;;;;;;5072051;28;19965;-65
2021/12/29 03:01:41;;;;;;;;;;;8.10;99.90;;;;;;5072432;28;20434;-64
2021/12/29 03:04:07;;;;;;;;;;;7.80;99.90;;;;;;5072620;28;19904;-66
2021/12/29 03:06:33;;;;;;;;;;;8.80;99.90;;;;;;5071956;28;19904;-64
2021/12/29 03:08:59;;;;;;;;;;;7.80;99.90;;;;;;5072462;28;19933;-64
2021/12/29 03:11:25;;;;;;;;;;;8.50;99.90;;;;;;5072246;28;19930;-64
2021/12/29 03:13:50;;;;;;;;;;;8.60;99.90;;;;;;5072139;28;19917;-64
2021/12/29 03:16:16;;;;;;;;;;;;;;;;;;5071755;28;19991;-65
2021/12/29 03:18:42;;;;;;;;;;;9.10;99.90;;;;;;5071899;28;19915;-64
2021/12/29 03:21:08;;;;;;;;;;;8.50;99.90;;;;;;5071538;28;19909;-65
2021/12/29 03:23:34;;;;;;;;;;;8.90;99.90;;;;;;5086955;28;19930;-65
2021/12/29 03:25:59;;;;;;;;;;;7.30;99.90;;;;;;5072274;28;19970;-64
2021/12/29 03:28:25;;;;;;;;;;;;;;;;;;5072298;28;19909;-65
2021/12/29 03:30:53;;;;;;;;;;;8.30;99.90;;;;;;5071619;28;19919;-65
2021/12/29 03:33:19;;;;;;;;;;;10.50;99.90;;;;;;5072166;28;19919;-65
2021/12/29 03:35:47;;;;;;;;;;;9.50;99.90;;;;;;5071641;28;19908;-66
2021/12/29 03:38:14;;;;;;;;;;;9.20;99.90;;;;;;5072112;28;19908;-65
2021/12/29 03:40:40;;;;;;;;;;;;;;;;;;5071408;28;19909;-65
2021/12/29 03:43:07;;;;;;;;;;;9.50;99.90;;;;;;5071866;28;19930;-65
2021/12/29 03:45:33;;;;;;;;;;;8.20;99.90;;;;;;5071743;28;19911;-65
2021/12/29 03:47:59;;;;;;;;;;;9.70;99.90;;;;;;5070702;28;19908;-65
2021/12/29 03:50:24;;;;;;;;;;;9.20;99.90;;;;;;5071022;28;19987;-65
2021/12/29 03:52:50;;;;;;;;;;;;;;;;;;5071914;28;20346;-64
2021/12/29 03:55:16;;;;;;;;;;;8.50;99.90;;;;;;5071889;28;19926;-65
2021/12/29 03:57:41;;;;;;;;;;;8.60;99.90;;;;;;5072007;28;20012;-65
2021/12/29 04:00:12;;;;;;;;;;;8.50;99.90;;;;;;5071474;28;19915;-65
2021/12/29 04:02:38;;;;;;;;;;;8.50;99.90;;;;;;5072204;28;19915;-64
2021/12/29 04:05:04;;;;;;;;;;;9.30;99.90;;;;;;5075622;28;19908;-65
2021/12/29 04:07:31;;;;;;;;;;;9.10;99.90;;;;;;5077908;28;19969;-65
2021/12/29 04:09:57;;;;;;;;;;;9.30;99.90;;;;;;5077238;28;19908;-65
2021/12/29 04:12:23;;;;;;;;;;;;;;;;;;5077567;28;19963;-65
2021/12/29 04:14:48;;;;;;;;;;;8.80;99.90;;;;;;5078910;28;19958;-64
2021/12/29 04:17:18;;;;;;;;;;;9.60;99.90;;;;;;5078461;28;20473;-64
2021/12/29 04:22:28;;;;;;;;;;;9.00;99.90;;;;;;5075327;28;19914;-64
2021/12/29 04:24:53;;;;;;;;;;;9.70;99.90;;;;;;5075838;28;19966;-63
2021/12/29 04:27:22;;;;;;;;;;;9.60;99.90;;;;;;5075884;28;19912;-64
2021/12/29 04:29:48;;;;;;;;;;;8.80;99.90;;;;;;5074982;28;19904;-64
2021/12/29 04:32:13;;;;;;;;;;;8.70;99.90;;;;;;5075325;28;19915;-66
2021/12/29 04:34:39;;;;;;;;;;;9.00;99.90;;;;;;5074627;28;19905;-64
2021/12/29 04:37:04;;;;;;;;;;;8.90;99.90;;;;;;5075229;28;19904;-64
2021/12/29 04:39:30;;;;;;;;;;;10.00;99.90;;;;;;5074641;28;19919;-66
2021/12/29 04:41:55;;;;;;;;;;;9.90;99.90;;;;;;5075116;28;19916;-65
2021/12/29 04:44:21;;;;;;;;;;;10.60;99.90;;;;;;5057147;28;20385;-65
2021/12/29 04:46:47;;;;;;;;;;;8.90;99.90;;;;;;5075575;28;19998;-65
2021/12/29 04:49:14;;;;;;;;;;;8.40;99.90;;;;;;5077132;28;19912;-65
2021/12/29 04:51:47;;;;;;;;;;;9.00;99.90;;;;;;5074949;28;19908;-65
2021/12/29 04:54:13;;;;;;;;;;;8.90;99.90;;;;;;5075699;28;20332;-64
2021/12/29 04:56:39;;;;;;;;;;;8.30;99.90;;;;;;5075521;28;19951;-65
2021/12/29 04:59:04;;;;;;;;;;;7.50;99.90;;;;;;5074556;28;19951;-64
2021/12/29 05:01:31;;;;;;;;;;;8.60;99.90;;;;;;5075128;28;19931;-65
2021/12/29 05:03:57;;;;;;;;;;;;;;;;;;5075005;28;19908;-65
2021/12/29 05:09:06;;;;;;;;;;;9.20;99.90;;;;;;5074751;28;19950;-65
2021/12/29 05:11:32;;;;;;;;;;;9.00;99.90;;;;;;5074385;28;19912;-65
2021/12/29 05:13:57;;;;;;;;;;;8.90;99.90;;;;;;5074690;28;19923;-65
2021/12/29 05:16:27;;;;;;;;;;;9.60;99.90;;;;;;5073696;28;19912;-65
2021/12/29 05:18:54;;;;;;;;;;;9.60;99.90;;;;;;5074279;28;19922;-65
2021/12/29 05:21:19;;;;;;;;;;;9.00;99.90;;;;;;5073563;28;19909;-65
2021/12/29 05:23:45;;;;;;;;;;;8.40;99.90;;;;;;5074415;28;19927;-65
2021/12/29 05:26:10;;;;;;;;;;;9.00;99.90;;;;;;5074249;28;19912;-65
2021/12/29 05:28:36;;;;;;;;;;;8.20;99.90;;;;;;5074396;28;19961;-65
2021/12/29 05:31:01;;;;;;;;;;;8.70;99.90;;;;;;5073739;28;19954;-65
2021/12/29 05:33:27;;;;;;;;;;;;;;;;;;5074287;28;19912;-65
2021/12/29 05:35:53;;;;;;;;;;;8.10;99.90;;;;;;5073976;28;19904;-65
2021/12/29 05:38:18;;;;;;;;;;;7.70;99.90;;;;;;5074242;28;19916;-65
2021/12/29 05:40:44;;;;;;;;;;;9.20;99.90;;;;;;5073063;28;20011;-65
2021/12/29 05:43:09;;;;;;;;;;;10.20;99.90;;;;;;5056212;28;19904;-65
2021/12/29 05:45:35;;;;;;;;;;;;;;;;;;5073838;28;19946;-65
2021/12/29 05:48:01;;;;;;;;;;;8.90;99.90;;;;;;5074274;28;20292;-65
2021/12/29 05:50:28;;;;;;;;;;;8.60;99.90;;;;;;5072961;28;19908;-65
2021/12/29 05:52:54;;;;;;;;;;;9.70;99.90;;;;;;5073903;28;19912;-65
2021/12/29 05:55:20;;;;;;;;;;;8.50;99.90;;;;;;5072563;28;19914;-65
2021/12/29 05:57:46;;;;;;;;;;;;;;;;;;5073968;28;20410;-66
2021/12/29 06:00:13;;;;;;;;;;;8.60;99.90;;;;;;5073397;28;20393;-65
2021/12/29 06:02:38;;;;;;;;;;;9.80;99.90;;;;;;5073649;28;19905;-65
2021/12/29 06:05:06;;;;;;;;;;;9.10;99.90;;;;;;5073785;28;19962;-65
2021/12/29 06:07:32;;;;;;;;;;;7.10;99.90;;;;;;5073380;28;19965;-65
2021/12/29 06:09:58;;;;;;;;;;;8.00;99.90;;;;;;5072614;28;20273;-65
2021/12/29 06:12:23;;;;;;;;;;;9.40;99.90;;;;;;5073357;28;19916;-65
2021/12/29 06:14:49;;;;;;;;;;;8.50;99.90;;;;;;5055580;28;19904;-65
2021/12/29 06:17:15;;;;;;;;;;;8.40;99.90;;;;;;5073425;28;20290;-65
2021/12/29 06:19:40;;;;;;;;;;;8.70;99.90;;;;;;5072826;28;19912;-65
2021/12/29 06:22:09;;;;;;;;;;;6.20;99.90;;;;;;5073025;28;20367;-65
2021/12/29 06:24:35;;;;;;;;;;;;;;;;;;5073141;28;19955;-65
2021/12/29 06:27:00;;;;;;;;;;;8.70;99.90;;;;;;5055389;28;19993;-65
2021/12/29 06:29:26;;;;;;;;;;;8.20;99.90;;;;;;5072346;28;19915;-65
2021/12/29 06:31:52;;;;;;;;;;;;;;;;;;5073236;28;20003;-65
2021/12/29 06:34:17;;;;;;;;;;;8.80;99.90;;;;;;5073262;28;19909;-65
2021/12/29 06:36:43;;;;;;;;;;;;;;;;;;5072805;28;19943;-66
2021/12/29 06:39:09;;;;;;;;;;;8.50;99.90;;;;;;5071273;28;19908;-66
2021/12/29 06:41:35;;;;;;;;;;;;;;;;;;5072728;28;19908;-65
2021/12/29 06:44:01;;;;;;;;;;;8.50;99.90;;;;;;5072909;28;19962;-67
2021/12/29 06:46:26;;;;;;;;;;;9.30;99.90;;;;;;5072600;28;19943;-66
2021/12/29 06:48:52;;;;;;;;;;;8.90;99.90;;;;;;5072699;28;19919;-66
2021/12/29 06:51:17;;;;;;;;;;;8.80;99.90;;;;;;5071863;28;19911;-65
2021/12/29 06:53:43;;;;;;;;;;;8.30;99.90;;;;;;5072582;28;19963;-64
2021/12/29 06:56:08;;;;;;;;;;;8.50;99.90;;;;;;5054612;28;19915;-64
2021/12/29 06:58:34;;;;;;;;;;;9.20;99.90;;;;;;5053911;28;19904;-63
2021/12/29 07:01:00;;;;;;;;;;;;;;;;;;5052307;28;19948;-66
2021/12/29 07:03:26;;;;;;;;;;;8.40;99.90;;;;;;5052883;28;19912;-66
2021/12/29 07:05:52;;;;;;;;;;;;;;;;;;5052477;28;20270;-66
2021/12/29 07:08:18;;;;;;;;;;;8.10;99.90;;;;;;5057590;28;19912;-64
2021/12/29 07:10:45;;;;;;;;;;;;;;;;;;5060656;28;19905;-70
2021/12/29 07:13:10;;;;;;;;;;;8.90;99.90;;;;;;5050566;28;19942;-71
2021/12/29 07:15:36;;;;;;;;;;;8.30;99.90;;;;;;5045662;28;19905;-77
2021/12/29 07:18:02;;;;;;;;;;;8.30;99.90;;;;;;5052075;28;19913;-78
2021/12/29 07:20:28;;;;;;;;;;;;;;;;;;5055233;28;19912;-76
2021/12/29 07:22:53;;;;;;;;;;;8.70;99.90;;;;;;5054533;28;20351;-76
2021/12/29 07:25:19;;;;;;;;;;;8.70;99.90;;;;;;5052375;28;19905;-77
2021/12/29 07:27:44;;;;;;;;;;;9.10;99.90;;;;;;5052524;28;19912;-78
2021/12/29 07:30:11;;;;;;;;;;;8.20;99.90;;;;;;5052192;28;19945;-77
2021/12/29 07:32:37;;;;;;;;;;;8.40;99.90;;;;;;5052386;28;19913;-77
2021/12/29 07:35:02;;;;;;;;;;;8.60;99.90;;;;;;5053018;28;19904;-78
2021/12/29 07:37:28;;;;;;;;;;;9.40;99.90;;;;;;5034306;28;20017;-77
2021/12/29 07:39:53;;;;;;;;;;;9.40;99.90;;;;;;5052017;28;20110;-79
2021/12/29 07:42:19;;;;;;;;;;;8.10;99.90;;;;;;5053317;28;19935;-79
2021/12/29 07:44:47;;;;;;;;;;;9.30;99.90;;;;;;5052523;28;20318;-77
2021/12/29 07:47:13;;;;;;;;;;;7.40;99.90;;;;;;5051882;28;19911;-70
2021/12/29 07:49:39;;;;;;;;;;;;;;;;;;5033471;28;19908;-70
2021/12/29 07:52:05;;;;;;;;;;;8.50;99.90;;;;;;5051782;28;19991;-70
2021/12/29 07:54:30;;;;;;;;;;;8.60;99.90;;;;;;5052077;28;19912;-68
2021/12/29 07:56:56;;;;;;;;;;;8.20;99.90;;;;;;5051503;28;20263;-68
2021/12/29 07:59:21;;;;;;;;;;;8.70;99.90;;;;;;5051587;28;19912;-68
2021/12/29 08:01:47;;;;;;;;;;;9.10;99.90;;;;;;5051965;28;19931;-69
2021/12/29 08:04:14;;;;;;;;;;;9.00;99.90;;;;;;5052151;28;20010;-70
2021/12/29 08:06:40;;;;;;;;;;;;;;;;;;5050218;28;20370;-70
2021/12/29 08:09:07;;;;;;;;;;;;;;;;;;5051384;28;20282;-73
2021/12/29 08:11:33;;;;;;;;;;;8.80;99.90;;;;;;5051871;28;19905;-72
2021/12/29 08:13:58;;;;;;;;;;;9.80;99.90;;;;;;5052252;28;19912;-73
2021/12/29 08:16:24;;;;;;;;;;;9.60;99.90;;;;;;5052565;28;20397;-72
2021/12/29 08:18:50;;;;;;;;;;;8.90;99.90;;;;;;5052073;28;20374;-73
2021/12/29 08:21:15;;;;;;;;;;;9.30;99.90;;;;;;5051637;28;20351;-74
2021/12/29 08:23:41;;;;;;;;;;;10.10;99.90;;;;;;5052420;28;19905;-71
2021/12/29 08:26:06;;;;;;;;;;;9.40;99.90;;;;;;5052498;28;19909;-72
2021/12/29 08:28:33;;;;;;;;;;;9.90;99.90;;;;;;5051864;28;19963;-72
2021/12/29 08:30:58;;;;;;;;;;;9.80;99.90;;;;;;5051033;28;20382;-73
2021/12/29 08:33:24;;;;;;;;;;;9.10;99.90;;;;;;5051976;28;19920;-66
2021/12/29 08:35:49;;;;;;;;;;;9.60;99.90;;;;;;5050701;28;19909;-66
2021/12/29 08:38:15;;;;;;;;;;;9.60;99.90;;;;;;5051432;28;19933;-66
2021/12/29 08:40:41;;;;;;;;;;;7.90;99.90;;;;;;5050732;28;19939;-66
2021/12/29 08:43:06;;;;;;;;;;;9.80;99.90;;;;;;5051400;28;19905;-66
2021/12/29 08:45:33;;;;;;;;;;;;;;;;;;5051258;28;19916;-67
2021/12/29 08:47:58;;;;;;;;;;;9.10;99.90;;;;;;5051130;28;19950;-67
2021/12/29 08:50:25;;;;;;;;;;;8.50;99.90;;;;;;5050450;28;19905;-66
2021/12/29 08:52:51;;;;;;;;;;;9.20;99.90;;;;;;5054378;28;19920;-67
2021/12/29 08:55:17;;;;;;;;;;;9.70;99.90;;;;;;5065764;28;20029;-68
2021/12/29 08:57:43;;;;;;;;;;;;;;;;;;5074800;28;19912;-66
2021/12/29 09:00:10;;;;;;;;;;;10.50;99.90;;;;;;5074294;28;20402;-68
2021/12/29 09:02:36;;;;;;;;;;;10.00;99.90;;;;;;5074366;28;19915;-66
2021/12/29 09:05:02;;;;;;;;;;;;;;;;;;5074148;28;20278;-66
2021/12/29 09:07:27;;;;;;;;;;;9.90;99.90;;;;;;5074415;28;19911;-67
2021/12/29 09:09:53;;;;;;;;;;;9.50;99.90;;;;;;5061518;28;20388;-67
2021/12/29 09:12:18;;;;;;;;;;;9.90;99.90;;;;;;5054300;28;19924;-67
2021/12/29 09:14:45;;;;;;;;;;;10.10;99.90;;;;;;5053183;28;20379;-67
2021/12/29 09:17:11;;;;;;;;;;;10.40;99.90;;;;;;5054407;28;20007;-67
2021/12/29 09:19:40;;;;;;;;;;;10.20;99.90;;;;;;5053705;28;20278;-67
2021/12/29 09:22:05;;;;;;;;;;;11.00;99.90;;;;;;5054286;28;19942;-67
2021/12/29 09:24:31;;;;;;;;;;;;;;;;;;5054837;28;20346;-68
2021/12/29 09:26:57;;;;;;;;;;;10.00;99.90;;;;;;5054056;28;19959;-67
2021/12/29 09:29:22;;;;;;;;;;;10.10;99.90;;;;;;5054140;28;19913;-68
2021/12/29 09:31:48;;;;;;;;;;;;;;;;;;5054136;28;19916;-68
2021/12/29 09:34:14;;;;;;;;;;;9.90;99.90;;;;;;5054014;28;19912;-66
2021/12/29 09:36:40;;;;;;;;;;;10.20;99.90;;;;;;5045477;28;19920;-75
2021/12/29 09:39:05;;;;;;;;;;;9.40;99.90;;;;;;5055113;28;19951;-74
2021/12/29 09:41:32;;;;;;;;;;;9.00;99.90;;;;;;5037083;28;19909;-75
2021/12/29 09:43:58;;;;;;;;;;;;;;;;;;5056444;28;20552;-74
2021/12/29 09:46:24;;;;;;;;;;;9.60;99.90;;;;;;5056562;28;20003;-75
2021/12/29 09:48:51;;;;;;;;;;;9.10;99.90;;;;;;5056027;28;19915;-75
2021/12/29 09:51:17;;;;;;;;;;;11.20;99.90;;;;;;5054631;28;19911;-75
2021/12/29 09:53:44;;;;;;;;;;;11.00;99.90;;;;;;5054754;28;19913;-68
2021/12/29 09:56:10;;;;;;;;;;;;;;;;;;5072363;28;19912;-67
2021/12/29 09:58:36;;;;;;;;;;;9.90;99.90;;;;;;5073640;28;19908;-68
2021/12/29 10:01:04;;;;;;;;;;;10.90;99.90;;;;;;5073006;28;19905;-68
2021/12/29 10:03:30;;;;;;;;;;;11.20;99.90;;;;;;5072850;28;19944;-67
2021/12/29 10:05:58;;;;;;;;;;;9.60;99.90;;;;;;5031838;28;19905;-66
2021/12/29 10:08:25;;;;;;;;;;;10.60;99.90;;;;;;5033948;28;19963;-67
2021/12/29 10:10:52;;;;;;;;;;;10.30;99.90;;;;;;5033652;28;19992;-68
2021/12/29 10:13:18;;;;;;;;;;;10.50;99.90;;;;;;5033739;28;19913;-67
2021/12/29 10:15:45;;;;;;;;;;;10.90;99.90;;;;;;5035929;28;19912;-68
2021/12/29 10:18:11;;;;;;;;;;;;;;;;;;5036016;28;20391;-67
2021/12/29 10:20:47;;;;;;;;;;;11.30;99.90;;;;;;5033803;28;19916;-67
2021/12/29 10:23:15;;;;;;;;;;;10.60;99.90;;;;;;5033329;28;19938;-67
2021/12/29 10:25:41;;;;;;;;;;;10.90;99.90;;;;;;5062288;28;20005;-67
2021/12/29 10:28:07;;;;;;;;;;;;;;;;;;5073175;28;20374;-67
2021/12/29 10:30:32;;;;;;;;;;;11.20;99.90;;;;;;5064519;28;19961;-67
2021/12/29 10:33:08;;;;;;;;;;;9.40;99.90;;;;;;5053071;28;19920;-67
2021/12/29 10:35:34;;;;;;;;;;;;;;;;;;5053161;28;19912;-67
2021/12/29 10:38:00;;;;;;;;;;;;;;;;;;5052869;28;19905;-67
2021/12/29 10:40:26;;;;;;;;;;;;;;;;;;5052016;28;19916;-67
2021/12/29 10:42:52;;;;;;;;;;;11.70;99.90;;;;;;5052547;28;19905;-67
2021/12/29 10:45:26;;;;;;;;;;;10.70;99.90;;;;;;5052892;28;19999;-67
2021/12/29 10:47:52;;;;;;;;;;;10.70;99.90;;;;;;5052841;28;19911;-67
2021/12/29 10:50:18;;;;;;;;;;;10.70;99.90;;;;;;5034264;28;19909;-68
2021/12/29 10:52:45;;;;;;;;;;;10.90;99.90;;;;;;5052125;28;19966;-67
2021/12/29 10:55:15;;;;;;;;;;;10.60;99.90;;;;;;5027938;28;19913;-68
2021/12/29 10:57:40;;;;;;;;;;;10.30;99.90;;;;;;5072558;28;19995;-68
2021/12/29 11:00:08;;;;;;;;;;;10.70;99.90;;;;;;5072640;28;20011;-76
2021/12/29 11:02:35;;;;;;;;;;;9.90;99.90;;;;;;5072572;28;19912;-74
2021/12/29 11:05:04;;;;;;;;;;;10.00;99.90;;;;;;5072698;28;19978;-73
2021/12/29 11:07:31;;;;;;;;;;;9.60;99.90;;;;;;5072463;28;19904;-75
2021/12/29 11:10:07;;;;;;;;;;;11.20;99.90;;;;;;5071635;28;19947;-75
2021/12/29 11:12:33;;;;;;;;;;;;;;;;;;5054472;28;20370;-75
2021/12/29 11:14:58;;;;;;;;;;;10.10;99.90;;;;;;5053653;28;19904;-75
2021/12/29 11:17:25;;;;;;;;;;;10.00;99.90;;;;;;5072480;28;19909;-74
2021/12/29 11:19:52;;;;;;;;;;;10.80;99.90;;;;;;5070876;28;19916;-75
2021/12/29 11:22:19;;;;;;;;;;;10.30;99.90;;;;;;5072085;28;19908;-74
2021/12/29 11:24:52;;;;;;;;;;;10.50;99.90;;;;;;5072260;28;20346;-73
2021/12/29 11:27:19;;;;;;;;;;;10.00;99.90;;;;;;5054533;28;20013;-74
2021/12/29 11:29:52;;;;;;;;;;;10.40;99.90;;;;;;5052178;28;20002;-74
2021/12/29 11:32:19;;;;;;;;;;;10.50;99.90;;;;;;5052130;28;19909;-73
2021/12/29 11:34:44;;;;;;;;;;;10.20;99.90;;;;;;5052030;28;19955;-73
2021/12/29 11:37:12;;;;;;;;;;;10.80;99.90;;;;;;5051600;28;19948;-75
2021/12/29 11:39:39;;;;;;;;;;;9.70;99.90;;;;;;5033693;28;20317;-76
2021/12/29 11:42:05;;;;;;;;;;;10.20;99.90;;;;;;5052038;28;19995;-74
2021/12/29 11:44:30;;;;;;;;;;;9.90;99.90;;;;;;5052241;28;20405;-74
2021/12/29 11:46:56;;;;;;;;;;;10.00;99.90;;;;;;5034157;28;19915;-74
2021/12/29 11:49:22;;;;;;;;;;;10.30;99.90;;;;;;5051164;28;20428;-73
2021/12/29 11:51:52;;;;;;;;;;;10.60;99.90;;;;;;5051782;28;19912;-74
2021/12/29 11:54:21;;;;;;;;;;;11.30;99.90;;;;;;5051761;28;20305;-75
2021/12/29 11:56:47;;;;;;;;;;;10.70;99.90;;;;;;5051839;28;19927;-74
2021/12/29 11:59:14;;;;;;;;;;;10.30;99.90;;;;;;5052201;28;19913;-76
2021/12/29 12:01:39;;;;;;;;;;;10.60;99.90;;;;;;5018163;28;20015;-76
2021/12/29 12:04:07;;;;;;;;;;;10.30;99.90;;;;;;5052820;28;20006;-75
2021/12/29 12:06:33;;;;;;;;;;;10.60;99.90;;;;;;5052903;28;20039;-75
2021/12/29 12:09:00;;;;;;;;;;;10.10;99.90;;;;;;5053051;28;19936;-76
2021/12/29 12:11:26;;;;;;;;;;;10.00;99.90;;;;;;5052411;28;19999;-76
2021/12/29 12:13:52;;;;;;;;;;;10.50;99.90;;;;;;5051923;28;19912;-76
2021/12/29 12:16:19;;;;;;;;;;;10.40;99.90;;;;;;5051384;28;19912;-75
2021/12/29 12:18:47;;;;;;;;;;;10.50;99.90;;;;;;5051649;28;19917;-77
2021/12/29 12:21:32;;;;;;;;;;;10.70;99.90;;;;;;5051178;28;19908;-71
2021/12/29 12:24:10;;;;;;;;;;;10.90;99.90;;;;;;5051816;28;19932;-70
2021/12/29 12:26:47;;;;;;;;;;;10.50;99.90;;;;;;5073144;28;20381;-74
2021/12/29 12:29:14;;;;;;;;;;;10.80;99.90;;;;;;5075350;28;19908;-79
2021/12/29 12:31:40;;;;;;;;;;;10.90;99.90;;;;;;5058444;28;19905;-78
2021/12/29 12:34:08;;;;;;;;;;;11.90;99.90;;;;;;5055913;28;20416;-79
2021/12/29 12:36:34;;;;;;;;;;;11.40;99.90;;;;;;5067622;28;19908;-78
2021/12/29 12:39:00;;;;;;;;;;;;;;;;;;5075491;28;19910;-79
2021/12/29 12:41:35;;;;;;;;;;;11.50;99.90;;;;;;5075092;28;19908;-78
2021/12/29 12:44:00;;;;;;;;;;;11.70;99.90;;;;;;5075586;28;19905;-79
2021/12/29 12:46:43;;;;;;;;;;;11.40;99.90;;;;;;5057768;28;20023;-80
2021/12/29 12:49:18;;;;;;;;;;;11.30;99.90;;;;;;5040185;28;19955;-78
2021/12/29 12:52:04;;;;;;;;;;;11.60;99.90;;;;;;5034479;28;20367;-78
2021/12/29 12:54:30;;;;;;;;;;;;;;;;;;5044470;28;19909;-79
2021/12/29 12:56:59;;;;;;;;;;;11.00;99.90;;;;;;5039021;28;19915;-79
2021/12/29 12:59:41;;;;;;;;;;;10.70;99.90;;;;;;5055089;28;19909;-80
2021/12/29 13:02:14;;;;;;;;;;;10.70;99.90;;;;;;5053647;28;19909;-81
2021/12/29 13:04:43;;;;;;;;;;;10.00;99.90;;;;;;5055730;28;19909;-81
2021/12/29 13:07:09;;;;;;;;;;;10.90;99.90;;;;;;5056467;28;19905;-81
2021/12/29 13:09:44;;;;;;;;;;;10.30;99.90;;;;;;5054911;28;19909;-81
2021/12/29 13:12:10;;;;;;;;;;;11.00;99.90;;;;;;5057798;28;19909;-80
2021/12/29 13:14:35;;;;;;;;;;;10.90;99.90;;;;;;5061606;28;20290;-80
2021/12/29 13:17:01;;;;;;;;;;;11.20;99.90;;;;;;5062790;28;20003;-79
2021/12/29 13:19:26;;;;;;;;;;;10.60;99.90;;;;;;5060263;28;19908;-79
2021/12/29 13:21:52;;;;;;;;;;;10.80;99.90;;;;;;5063703;28;19944;-79
2021/12/29 13:24:17;;;;;;;;;;;10.90;99.90;;;;;;5067972;28;20355;-80
2021/12/29 13:26:44;;;;;;;;;;;10.70;99.90;;;;;;5054240;28;19915;-80
2021/12/29 13:29:11;;;;;;;;;;;10.70;99.90;;;;;;5077666;28;19909;-79
2021/12/29 13:31:38;;;;;;;;;;;11.20;99.90;;;;;;5073284;28;19905;-81
2021/12/29 13:34:03;;;;;;;;;;;11.30;99.90;;;;;;5066565;28;19981;-80
2021/12/29 13:36:29;;;;;;;;;;;10.90;99.90;;;;;;5060706;28;19943;-80
2021/12/29 13:38:57;;;;;;;;;;;10.90;99.90;;;;;;5074840;28;20008;-79
2021/12/29 13:41:23;;;;;;;;;;;10.80;99.90;;;;;;5069452;28;19908;-80
2021/12/29 13:43:50;;;;;;;;;;;10.10;99.90;;;;;;5063937;28;19940;-72
2021/12/29 13:46:17;;;;;;;;;;;9.90;99.90;;;;;;5062063;28;20378;-80
2021/12/29 13:48:44;;;;;;;;;;;9.40;99.90;;;;;;5060781;28;20361;-79
2021/12/29 13:51:17;;;;;;;;;;;11.20;99.90;;;;;;5056606;28;19905;-79
2021/12/29 13:53:47;;;;;;;;;;;10.30;99.90;;;;;;5039660;28;19951;-77
2021/12/29 13:56:16;;;;;;;;;;;11.00;99.90;;;;;;5057764;28;19999;-80
2021/12/29 13:58:42;;;;;;;;;;;10.40;99.90;;;;;;5059620;28;21221;-79
2021/12/29 14:01:08;;;;;;;;;;;;;;;;;;5055434;28;19908;-78
2021/12/29 14:03:33;;;;;;;;;;;9.80;99.90;;;;;;5057923;28;20168;-79
2021/12/29 14:06:03;;;;;;;;;;;10.20;99.90;;;;;;5056056;28;19915;-77
2021/12/29 14:08:30;;;;;;;;;;;10.60;99.90;;;;;;5049379;28;19905;-75
2021/12/29 14:10:58;;;;;;;;;;;11.10;99.90;;;;;;5054197;28;19905;-77
2021/12/29 14:13:23;;;;;;;;;;;10.00;99.90;;;;;;5054094;28;20320;-77
2021/12/29 14:16:00;;;;;;;;;;;10.00;99.90;;;;;;5053774;28;19908;-77
2021/12/29 14:18:25;;;;;;;;;;;10.10;99.90;;;;;;5054312;28;20002;-77
2021/12/29 14:20:52;;;;;;;;;;;9.70;99.90;;;;;;5054170;28;19952;-77
2021/12/29 14:23:18;;;;;;;;;;;10.00;99.90;;;;;;5053164;28;19947;-70
2021/12/29 14:25:46;;;;;;;;;;;10.10;99.90;;;;;;5052056;28;19912;-75
2021/12/29 14:28:19;;;;;;;;;;;10.50;99.90;;;;;;5048604;28;19991;-78
2021/12/29 14:30:55;;;;;;;;;;;10.70;99.90;;;;;;5031189;28;20351;-78
2021/12/29 14:33:23;;;;;;;;;;;10.00;99.90;;;;;;5050002;28;19920;-73
2021/12/29 14:35:50;;;;;;;;;;;9.70;99.90;;;;;;5047373;28;19915;-74
2021/12/29 14:38:16;;;;;;;;;;;9.80;99.90;;;;;;5052481;28;19909;-81
2021/12/29 14:40:42;;;;;;;;;;;9.40;99.90;;;;;;5051425;28;20367;-80
2021/12/29 14:43:07;;;;;;;;;;;10.10;99.90;;;;;;5052173;28;19916;-80
2021/12/29 14:45:33;;;;;;;;;;;10.30;99.90;;;;;;5052427;28;19911;-79